Time;durP1;ratioP1;P1;durP2;ratioP2;P2;SDS_P1;SDS_P2;PMS_P1;PMS_P2;Temp;Humidity;BMP_temperature;BMP_pressure;BME280_temperature;BME280_humidity;BME280_pressure;Samples;Min_cycle;Max_cycle;Signal;HPM_P1;HPM_P2
2021/08/15 00:01:53;;;;;;;9.43;6.40;;;;;;;27.20;40.53;100023.23;1842481;77;21009;-63
2021/08/15 00:04:20;;;;;;;9.38;6.40;;;;;;;27.18;40.58;100022.14;1813234;77;20994;-65
2021/08/15 00:06:47;;;;;;;8.60;6.62;;;;;;;27.19;40.58;100012.85;1826284;77;21131;-66
2021/08/15 00:09:14;;;;;;;11.55;7.22;;;;;;;27.20;40.58;100015.06;1828546;77;21049;-65
2021/08/15 00:11:42;;;;;;;10.25;7.22;;;;;;;27.18;40.54;100010.42;1825961;77;21087;-66
2021/08/15 00:14:10;;;;;;;8.93;6.47;;;;;;;27.20;40.65;100016.42;1802490;77;21045;-66
2021/08/15 00:16:39;;;;;;;10.10;7.45;;;;;;;27.19;40.48;100012.85;1840868;77;21046;-65
2021/08/15 00:19:07;;;;;;;9.50;6.85;;;;;;;27.18;40.47;100013.15;1832493;77;21518;-66
2021/08/15 00:21:36;;;;;;;9.00;6.78;;;;;;;27.19;40.52;100016.13;1804649;77;21501;-65
2021/08/15 00:24:04;;;;;;;10.55;6.58;;;;;;;27.17;40.49;100017.77;1846388;76;22155;-66
2021/08/15 00:26:32;;;;;;;10.68;6.62;;;;;;;27.18;40.53;100019.41;1805597;77;21162;-66
2021/08/15 00:29:00;;;;;;;8.83;6.70;;;;;;;27.17;40.49;100018.31;1846666;77;20994;-66
2021/08/15 00:31:29;;;;;;;10.05;7.45;;;;;;;27.17;40.50;100019.68;1815418;76;21075;-65
2021/08/15 00:33:56;;;;;;;8.85;7.08;;;;;;;27.16;40.42;100010.69;1804864;77;21033;-65
2021/08/15 00:36:22;;;;;;;9.58;6.92;;;;;;;27.15;40.50;100012.31;1849507;77;21524;-67
2021/08/15 00:38:49;;;;;;;12.35;8.18;;;;;;;27.15;40.47;100011.77;1842814;76;21598;-66
2021/08/15 00:41:16;;;;;;;10.48;7.00;;;;;;;27.14;40.41;100011.51;1826992;77;21489;-66
2021/08/15 00:43:42;;;;;;;8.98;6.62;;;;;;;27.14;40.49;100014.75;1830447;77;21328;-65
2021/08/15 00:46:10;;;;;;;10.00;7.42;;;;;;;27.13;40.50;100009.05;1798755;78;21495;-65
2021/08/15 00:48:37;;;;;;;8.63;6.40;;;;;;;27.12;40.45;100007.39;1814577;76;21063;-65
2021/08/15 00:51:04;;;;;;;8.58;6.45;;;;;;;27.10;40.47;100006.33;1842589;76;22006;-65
2021/08/15 00:53:34;;;;;;;10.03;7.45;;;;;;;27.11;40.51;100012.04;1833145;76;21084;-66
2021/08/15 00:56:03;;;;;;;8.60;6.22;;;;;;;27.10;40.52;100010.42;1833038;76;21024;-65
2021/08/15 00:58:31;;;;;;;7.60;6.78;;;;;;;27.12;40.54;100010.13;1808481;78;21485;-66
2021/08/15 01:01:03;;;;;;;7.65;6.35;;;;;;;27.11;40.46;100005.22;1835203;76;21487;-66
2021/08/15 01:03:31;;;;;;;11.93;7.10;;;;;;;27.11;40.45;100005.77;1832316;76;21571;-65
2021/08/15 01:06:02;;;;;;;10.58;7.12;;;;;;;27.11;40.42;100007.95;1852245;76;21595;-65
2021/08/15 01:08:31;;;;;;;9.28;5.95;;;;;;;27.11;40.40;100013.95;1839886;76;21049;-65
2021/08/15 01:11:08;;;;;;;10.05;7.10;;;;;;;27.11;40.46;100009.86;1836884;76;21095;-65
2021/08/15 01:13:36;;;;;;;8.10;6.45;;;;;;;27.10;40.49;100002.23;1823998;77;21435;-65
2021/08/15 01:16:08;;;;;;;9.35;6.22;;;;;;;27.08;40.40;99997.57;1825336;76;21083;-66
2021/08/15 01:18:37;;;;;;;8.20;6.47;;;;;;;27.10;40.38;99997.30;1820835;76;21519;-64
2021/08/15 01:21:10;;;;;;;9.58;6.60;;;;;;;27.10;40.35;100004.13;1813175;78;21175;-64
2021/08/15 01:23:40;;;;;;;9.58;6.80;;;;;;;27.09;40.26;100003.31;1812996;78;22107;-65
2021/08/15 01:26:11;;;;;;;6.83;5.53;;;;;;;27.09;40.17;100004.67;1835304;76;21517;-65
2021/08/15 01:28:37;;;;;;;9.68;6.60;;;;;;;27.07;40.22;100000.85;1803428;76;21748;-66
2021/08/15 01:31:07;;;;;;;9.63;6.28;;;;;;;27.06;40.28;100001.95;1837055;76;20998;-65
2021/08/15 01:33:37;;;;;;;9.78;6.40;;;;;;;27.09;40.22;99999.78;1835527;76;23143;-69
2021/08/15 01:36:04;;;;;;;8.73;7.10;;;;;;;27.07;40.16;99992.67;1823312;76;21059;-67
2021/08/15 01:38:34;;;;;;;8.73;6.08;;;;;;;27.09;40.17;99999.22;1811717;76;21044;-66
2021/08/15 01:41:00;;;;;;;9.23;6.05;;;;;;;27.09;40.10;99999.22;1840556;76;21890;-66
2021/08/15 01:43:28;;;;;;;8.93;6.97;;;;;;;27.09;40.08;99996.50;1841387;76;20977;-67
2021/08/15 01:45:55;;;;;;;7.97;6.12;;;;;;;27.09;40.03;99999.22;1819761;76;21894;-67
2021/08/15 01:48:22;;;;;;;9.45;6.67;;;;;;;27.09;40.05;99994.33;1853769;76;21033;-66
2021/08/15 01:50:49;;;;;;;9.03;6.50;;;;;;;27.08;39.92;99993.48;1825065;76;21023;-65
2021/08/15 01:53:19;;;;;;;7.33;6.10;;;;;;;27.06;39.89;99989.69;1834022;76;21469;-65
2021/08/15 01:55:48;;;;;;;9.98;6.67;;;;;;;27.05;39.88;99985.86;1822064;76;20984;-67
2021/08/15 01:58:15;;;;;;;10.08;6.00;;;;;;;27.03;39.88;99990.22;1825585;76;21124;-65
2021/08/15 02:00:43;;;;;;;8.08;6.10;;;;;;;27.01;39.91;99988.86;1834881;76;21057;-65
2021/08/15 02:03:10;;;;;;;10.28;6.95;;;;;;;26.98;40.00;99987.48;1831676;78;21481;-65
2021/08/15 02:05:40;;;;;;;10.50;6.80;;;;;;;26.97;40.11;99995.40;1832288;76;21050;-64
2021/08/15 02:08:07;;;;;;;8.98;6.65;;;;;;;26.94;40.13;99991.03;1840414;76;21060;-65
2021/08/15 02:10:33;;;;;;;9.08;6.30;;;;;;;26.92;40.22;99983.67;1835164;76;21501;-65
2021/08/15 02:13:02;;;;;;;9.98;6.53;;;;;;;26.90;40.35;99975.75;1811186;78;20954;-65
2021/08/15 02:15:31;;;;;;;7.92;6.65;;;;;;;26.88;40.49;99978.75;1839398;76;21477;-64
2021/08/15 02:18:00;;;;;;;9.20;6.50;;;;;;;26.87;40.56;99982.58;1818973;76;21040;-67
2021/08/15 02:20:30;;;;;;;10.98;6.78;;;;;;;26.86;40.59;99980.92;1822160;76;21542;-66
2021/08/15 02:22:59;;;;;;;9.98;6.90;;;;;;;26.86;40.61;99981.48;1835341;76;21860;-65
2021/08/15 02:25:25;;;;;;;10.25;7.05;;;;;;;26.85;40.63;99980.67;1830720;76;21025;-64
2021/08/15 02:27:53;;;;;;;11.40;7.97;;;;;;;26.86;40.80;99985.56;1819533;76;21607;-65
2021/08/15 02:30:22;;;;;;;9.63;7.03;;;;;;;26.85;40.81;99980.67;1837207;76;21032;-66
2021/08/15 02:32:48;;;;;;;9.35;7.03;;;;;;;26.86;40.74;99980.92;1842619;76;21462;-65
2021/08/15 02:35:16;;;;;;;10.25;7.47;;;;;;;26.86;40.67;99976.02;1842103;76;21355;-67
2021/08/15 02:37:47;;;;;;;10.50;7.45;;;;;;;26.86;40.75;99987.73;1843423;76;21029;-66
2021/08/15 02:40:16;;;;;;;11.00;7.17;;;;;;;26.84;40.74;99982.30;1832494;76;21060;-67
2021/08/15 02:42:45;;;;;;;12.10;6.97;;;;;;;26.84;40.76;99987.19;1831462;76;21032;-66
2021/08/15 02:45:13;;;;;;;9.45;7.67;;;;;;;26.81;40.83;99983.66;1825683;76;21485;-66
2021/08/15 02:47:40;;;;;;;9.55;7.08;;;;;;;26.82;40.83;99982.55;1837255;76;21887;-65
2021/08/15 02:50:09;;;;;;;12.68;7.10;;;;;;;26.82;40.96;99978.47;1852118;76;21052;-66
2021/08/15 02:52:36;;;;;;;10.58;7.62;;;;;;;26.82;40.97;99974.94;1813050;76;21600;-66
2021/08/15 02:55:04;;;;;;;9.40;7.15;;;;;;;26.81;41.03;99979.58;1834134;76;21063;-66
2021/08/15 02:57:31;;;;;;;8.48;6.95;;;;;;;26.83;41.00;99984.20;1828371;76;21587;-66
2021/08/15 02:59:58;;;;;;;8.18;6.83;;;;;;;26.83;41.04;99985.57;1806376;76;21813;-66
2021/08/15 03:02:26;;;;;;;8.93;7.53;;;;;;;26.83;41.07;99989.66;1847206;76;21547;-65
2021/08/15 03:04:53;;;;;;;8.13;7.08;;;;;;;26.84;41.21;99985.02;1832227;76;21536;-66
2021/08/15 03:07:20;;;;;;;8.03;6.90;;;;;;;26.84;41.15;99987.19;1826374;76;21602;-66
2021/08/15 03:09:46;;;;;;;8.75;6.85;;;;;;;26.85;41.13;99989.39;1834006;76;20966;-67
2021/08/15 03:12:14;;;;;;;11.70;7.85;;;;;;;26.86;41.12;99986.37;1815493;76;21943;-66
2021/08/15 03:14:42;;;;;;;10.50;6.80;;;;;;;26.86;41.13;99982.84;1833156;76;21033;-66
2021/08/15 03:17:08;;;;;;;9.23;6.53;;;;;;;26.85;41.10;99982.03;1833652;76;21049;-65
2021/08/15 03:19:36;;;;;;;10.40;8.03;;;;;;;26.86;41.09;99978.75;1811264;76;21606;-67
2021/08/15 03:22:05;;;;;;;7.67;6.87;;;;;;;26.85;41.14;99981.22;1831548;76;21052;-67
2021/08/15 03:24:34;;;;;;;10.53;7.85;;;;;;;26.85;41.20;99983.39;1825956;76;21471;-66
2021/08/15 03:27:03;;;;;;;9.80;7.08;;;;;;;26.85;41.13;99986.67;1812692;76;20986;-66
2021/08/15 03:29:31;;;;;;;10.25;7.85;;;;;;;26.84;41.11;99979.02;1841122;76;21527;-65
2021/08/15 03:31:58;;;;;;;9.80;7.58;;;;;;;26.84;41.11;99983.66;1820475;76;21045;-66
2021/08/15 03:34:25;;;;;;;10.43;7.62;;;;;;;26.84;41.10;99982.30;1826590;76;21520;-67
2021/08/15 03:36:52;;;;;;;12.10;7.58;;;;;;;26.82;41.05;99983.11;1824989;76;22633;-64
2021/08/15 03:39:21;;;;;;;12.55;7.62;;;;;;;26.83;41.09;99991.02;1845764;76;21009;-65
2021/08/15 03:41:48;;;;;;;9.83;7.37;;;;;;;26.82;41.15;99988.56;1810074;76;21444;-65
2021/08/15 03:44:14;;;;;;;10.48;7.55;;;;;;;26.81;41.17;99986.91;1849119;76;22077;-66
2021/08/15 03:46:41;;;;;;;10.68;7.37;;;;;;;26.78;41.13;99986.91;1840869;76;21526;-66
2021/08/15 03:49:11;;;;;;;9.75;7.17;;;;;;;26.77;41.18;99988.02;1820623;76;22308;-65
2021/08/15 03:51:38;;;;;;;9.48;7.22;;;;;;;26.75;41.26;99986.08;1837364;76;20993;-65
2021/08/15 03:54:04;;;;;;;12.90;7.22;;;;;;;26.74;41.35;99984.45;1829304;76;21512;-66
2021/08/15 03:56:32;;;;;;;9.30;7.62;;;;;;;26.74;41.38;99982.28;1835253;76;21017;-66
2021/08/15 03:59:00;;;;;;;9.63;7.40;;;;;;;26.74;41.43;99978.20;1833071;76;21634;-68
2021/08/15 04:01:27;;;;;;;8.85;6.80;;;;;;;26.72;41.49;99974.38;1830511;76;21856;-65
2021/08/15 04:03:53;;;;;;;9.03;6.95;;;;;;;26.72;41.48;99968.92;1855403;76;21044;-65
2021/08/15 04:06:22;;;;;;;11.28;6.95;;;;;;;26.72;41.54;99974.38;1831676;76;20988;-66
2021/08/15 04:08:51;;;;;;;9.35;6.85;;;;;;;26.72;41.46;99973.02;1833654;76;21517;-65
2021/08/15 04:11:18;;;;;;;11.00;7.72;;;;;;;26.72;41.57;99971.65;1848970;76;21001;-66
2021/08/15 04:13:46;;;;;;;9.08;6.45;;;;;;;26.73;41.58;99971.09;1821158;76;21801;-66
2021/08/15 04:16:12;;;;;;;9.58;7.22;;;;;;;26.76;41.64;99980.11;1830967;76;22009;-66
2021/08/15 04:18:41;;;;;;;9.65;6.87;;;;;;;26.76;41.67;99970.02;1848912;76;21025;-65
2021/08/15 04:21:07;;;;;;;8.40;6.72;;;;;;;26.77;41.64;99975.75;1840152;76;21613;-67
2021/08/15 04:23:34;;;;;;;10.40;7.30;;;;;;;26.80;41.66;99977.92;1824654;76;20981;-65
2021/08/15 04:26:02;;;;;;;11.80;6.70;;;;;;;26.80;41.65;99973.02;1850539;76;21318;-65
2021/08/15 04:28:29;;;;;;;8.70;6.72;;;;;;;26.83;41.60;99977.39;1822245;77;20982;-66
2021/08/15 04:30:56;;;;;;;7.72;6.92;;;;;;;26.85;41.56;99978.50;1819883;78;21017;-65
2021/08/15 04:33:27;;;;;;;8.85;6.22;;;;;;;26.85;41.55;99973.05;1810892;77;21602;-66
2021/08/15 04:35:52;;;;;;;11.28;6.72;;;;;;;26.87;41.60;99977.67;1811948;77;21473;-67
2021/08/15 04:38:23;;;;;;;8.98;6.97;;;;;;;26.88;41.62;99978.75;1825256;77;21167;-66
2021/08/15 04:40:50;;;;;;;7.62;6.45;;;;;;;26.90;41.70;99970.86;1789194;78;21064;-67
2021/08/15 04:45:14;;;;;;;8.10;7.00;;;;;;;26.95;41.74;99970.32;1829946;75;22743;-68
2021/08/15 04:47:41;;;;;;;7.78;6.97;;;;;;;26.90;41.79;99971.66;1810806;76;21556;-65
2021/08/15 04:50:09;;;;;;;8.65;7.67;;;;;;;26.93;41.74;99971.14;1798724;76;22218;-66
2021/08/15 04:52:35;;;;;;;9.05;7.33;;;;;;;26.94;41.68;99972.76;1806051;76;21553;-66
2021/08/15 04:55:05;;;;;;;10.82;7.20;;;;;;;26.97;41.66;99971.41;1807721;76;21021;-66
2021/08/15 04:57:32;;;;;;;7.58;6.75;;;;;;;26.98;41.63;99971.13;1812127;76;20908;-68
2021/08/15 04:59:59;;;;;;;8.20;7.40;;;;;;;27.01;41.65;99973.88;1804121;76;21666;-66
2021/08/15 05:02:26;;;;;;;10.72;6.53;;;;;;;27.02;41.66;99974.97;1810460;76;21568;-67
2021/08/15 05:04:52;;;;;;;9.50;6.30;;;;;;;27.04;41.64;99974.15;1811027;76;21058;-67
2021/08/15 05:07:20;;;;;;;9.15;6.10;;;;;;;27.06;41.58;99973.33;1811376;76;22283;-65
2021/08/15 05:09:46;;;;;;;7.42;6.60;;;;;;;27.10;41.51;99970.04;1800200;76;21691;-66
2021/08/15 05:12:13;;;;;;;7.37;6.67;;;;;;;27.10;41.50;99970.88;1816502;76;21511;-67
2021/08/15 05:14:41;;;;;;;8.63;6.50;;;;;;;27.13;41.51;99968.14;1811487;76;21119;-67
2021/08/15 05:17:08;;;;;;;8.70;6.53;;;;;;;27.15;41.59;99965.96;1800755;76;21061;-66
2021/08/15 05:19:36;;;;;;;8.28;6.62;;;;;;;27.17;41.36;99965.14;1807936;76;21548;-67
2021/08/15 05:22:04;;;;;;;7.08;6.37;;;;;;;27.19;41.25;99972.50;1821733;76;21270;-65
2021/08/15 05:24:32;;;;;;;7.65;6.20;;;;;;;27.20;41.24;99965.97;1807834;76;21053;-66
2021/08/15 05:26:58;;;;;;;6.95;5.83;;;;;;;27.21;41.22;99960.22;1808640;76;22025;-67
2021/08/15 05:29:26;;;;;;;7.40;5.87;;;;;;;27.23;41.10;99959.95;1783039;76;21104;-67
2021/08/15 05:31:53;;;;;;;7.10;6.37;;;;;;;27.24;41.09;99949.33;1821820;76;21053;-67
2021/08/15 05:34:20;;;;;;;9.03;6.33;;;;;;;27.25;41.14;99960.01;1831796;77;21501;-65
2021/08/15 05:36:48;;;;;;;7.58;6.22;;;;;;;27.28;41.13;99959.19;1816972;76;21990;-66
2021/08/15 05:39:14;;;;;;;7.15;5.75;;;;;;;27.29;41.06;99953.98;1817128;77;21127;-68
2021/08/15 05:41:42;;;;;;;7.75;5.90;;;;;;;27.31;40.89;99958.62;1823390;77;21014;-67
2021/08/15 05:44:09;;;;;;;8.03;6.25;;;;;;;27.31;40.71;99950.44;1825637;77;21100;-68
2021/08/15 05:46:35;;;;;;;8.85;6.22;;;;;;;27.32;40.72;99945.27;1827358;77;21088;-67
2021/08/15 05:49:02;;;;;;;7.90;5.53;;;;;;;27.34;40.77;99952.63;1825745;78;21015;-68
2021/08/15 05:51:28;;;;;;;5.92;5.28;;;;;;;27.33;40.69;99954.52;1812136;76;21075;-66
2021/08/15 05:53:55;;;;;;;8.43;5.30;;;;;;;27.34;40.74;99955.36;1817990;76;21080;-66
2021/08/15 05:56:21;;;;;;;8.73;6.22;;;;;;;27.36;40.80;99958.62;1816856;76;21036;-66
2021/08/15 05:58:48;;;;;;;7.72;5.10;;;;;;;27.37;40.86;99952.90;1809497;76;21061;-65
2021/08/15 06:01:14;;;;;;;7.75;5.53;;;;;;;27.40;40.91;99948.80;1824927;76;21038;-67
2021/08/15 06:03:40;;;;;;;6.28;5.67;;;;;;;27.41;40.89;99949.05;1821574;76;21346;-69
2021/08/15 06:06:07;;;;;;;6.20;5.60;;;;;;;27.42;40.84;99949.34;1804143;78;21056;-68
2021/08/15 06:08:34;;;;;;;6.97;5.22;;;;;;;27.42;40.80;99945.24;1771686;78;21091;-69
2021/08/15 06:11:02;;;;;;;8.65;6.12;;;;;;;27.43;40.93;99952.35;1816644;77;21094;-69
2021/08/15 06:13:29;;;;;;;10.78;5.78;;;;;;;27.43;40.94;99946.34;1804901;77;21558;-67
2021/08/15 06:15:56;;;;;;;6.85;5.30;;;;;;;27.45;41.04;99944.70;1805101;77;21747;-67
2021/08/15 06:18:22;;;;;;;8.78;5.60;;;;;;;27.46;41.07;99955.31;1806045;77;21062;-67
2021/08/15 06:20:50;;;;;;;6.20;5.28;;;;;;;27.48;41.04;99950.15;1797013;78;21030;-68
2021/08/15 06:23:17;;;;;;;7.53;5.83;;;;;;;27.49;41.23;99948.52;1799034;79;21041;-66
2021/08/15 06:25:45;;;;;;;7.87;6.12;;;;;;;27.50;41.22;99946.04;1816365;77;21097;-67
2021/08/15 06:28:13;;;;;;;7.28;5.28;;;;;;;27.51;41.25;99946.33;1795052;78;21133;-68
2021/08/15 06:30:39;;;;;;;8.05;5.65;;;;;;;27.53;41.21;99945.50;1794895;77;21112;-68
2021/08/15 06:33:06;;;;;;;5.90;5.20;;;;;;;27.54;41.19;99947.13;1797669;77;21032;-68
2021/08/15 06:35:33;;;;;;;6.17;5.22;;;;;;;27.56;41.19;99941.39;1792454;77;21057;-68
2021/08/15 06:38:00;;;;;;;6.87;4.92;;;;;;;27.57;41.14;99943.05;1790652;77;21088;-68
2021/08/15 06:40:28;;;;;;;6.03;4.80;;;;;;;27.57;41.14;99941.13;1816762;79;21831;-68
2021/08/15 06:43:09;;;;;;;7.15;5.40;;;;;;;27.58;41.16;99935.95;1817354;78;21341;-66
2021/08/15 06:45:37;;;;;;;8.58;5.37;;;;;;;27.59;41.23;99942.22;1807284;79;21017;-67
2021/08/15 06:48:05;;;;;;;6.20;5.42;;;;;;;27.61;41.30;99940.03;1800470;77;21055;-67
2021/08/15 06:50:32;;;;;;;5.67;5.15;;;;;;;27.61;41.35;99939.48;1803921;77;21058;-67
2021/08/15 06:53:00;;;;;;;6.47;5.22;;;;;;;27.65;41.41;99933.73;1812263;77;22162;-68
2021/08/15 06:55:27;;;;;;;6.78;5.95;;;;;;;27.68;41.31;99941.09;1797060;77;21028;-68
2021/08/15 06:57:54;;;;;;;5.92;4.97;;;;;;;27.68;41.25;99943.30;1813300;78;20998;-70
2021/08/15 07:00:20;;;;;;;5.90;5.22;;;;;;;27.70;41.13;99942.47;1798154;78;21041;-68
2021/08/15 07:02:49;;;;;;;5.15;4.65;;;;;;;27.70;41.18;99943.84;1809341;79;21069;-69
2021/08/15 07:05:16;;;;;;;6.03;5.20;;;;;;;27.72;41.25;99942.17;1810614;78;21125;-67
2021/08/15 07:07:43;;;;;;;5.67;4.90;;;;;;;27.73;41.47;99936.44;1809032;77;21112;-68
2021/08/15 07:10:11;;;;;;;6.70;5.15;;;;;;;27.77;41.23;99944.89;1810992;78;21038;-69
2021/08/15 07:12:37;;;;;;;5.78;4.42;;;;;;;27.76;41.04;99936.45;1803236;78;21385;-68
2021/08/15 07:15:06;;;;;;;7.17;4.90;;;;;;;27.75;41.16;99934.25;1811178;78;21550;-68
2021/08/15 07:17:36;;;;;;;5.35;4.83;;;;;;;27.76;41.23;99935.09;1809948;77;21096;-68
2021/08/15 07:20:02;;;;;;;5.35;4.85;;;;;;;27.76;41.06;99934.53;1827072;77;21600;-67
2021/08/15 07:22:28;;;;;;;5.95;4.97;;;;;;;27.77;40.99;99932.05;1793690;77;21074;-64
2021/08/15 07:24:55;;;;;;;6.67;4.75;;;;;;;27.77;40.92;99933.98;1803928;78;21084;-65
2021/08/15 07:27:23;;;;;;;5.70;5.00;;;;;;;27.77;40.92;99939.44;1793811;77;21045;-66
2021/08/15 07:29:50;;;;;;;7.53;4.58;;;;;;;27.76;40.98;99937.81;1807761;77;21122;-65
2021/08/15 07:32:16;;;;;;;7.70;5.37;;;;;;;27.74;40.98;99944.08;1799945;77;21005;-66
2021/08/15 07:34:43;;;;;;;5.78;4.62;;;;;;;27.73;41.24;99941.89;1787733;77;21081;-66
2021/08/15 07:37:09;;;;;;;5.97;4.65;;;;;;;27.73;41.25;99936.44;1806191;77;21078;-66
2021/08/15 07:39:36;;;;;;;6.12;4.42;;;;;;;27.75;41.25;99934.80;1805576;77;21053;-66
2021/08/15 07:42:04;;;;;;;6.62;5.17;;;;;;;27.77;41.10;99935.34;1810092;78;21108;-65
2021/08/15 07:44:32;;;;;;;6.95;4.97;;;;;;;27.80;41.22;99936.16;1802493;77;20998;-65
2021/08/15 07:46:58;;;;;;;7.67;4.80;;;;;;;27.83;41.24;99930.13;1790017;79;20998;-66
2021/08/15 07:49:27;;;;;;;8.83;4.83;;;;;;;27.86;41.12;99932.31;1782240;79;21025;-66
2021/08/15 07:51:53;;;;;;;6.17;4.60;;;;;;;27.89;41.08;99934.50;1794150;79;21093;-67
2021/08/15 07:54:19;;;;;;;7.20;4.75;;;;;;;27.89;40.80;99933.69;1771446;79;22862;-66
2021/08/15 07:56:46;;;;;;;6.80;4.90;;;;;;;27.89;41.11;99937.23;1804252;78;21003;-66
2021/08/15 07:59:12;;;;;;;7.28;5.30;;;;;;;27.90;40.87;99932.05;1795714;79;20998;-64
2021/08/15 08:01:39;;;;;;;8.13;5.12;;;;;;;27.91;41.09;99938.33;1796537;79;21100;-66
2021/08/15 08:04:06;;;;;;;8.83;5.00;;;;;;;27.93;41.38;99934.77;1800918;79;21006;-66
2021/08/15 08:06:32;;;;;;;6.22;5.30;;;;;;;27.95;41.14;99932.57;1793965;79;21108;-66
2021/08/15 08:08:59;;;;;;;7.15;4.75;;;;;;;27.97;41.10;99929.86;1790069;79;21565;-68
2021/08/15 08:11:25;;;;;;;5.50;5.00;;;;;;;28.00;41.08;99927.91;1797760;79;21100;-68
2021/08/15 08:13:51;;;;;;;7.05;5.22;;;;;;;28.02;40.87;99924.35;1784840;79;21128;-67
2021/08/15 08:16:18;;;;;;;6.90;4.95;;;;;;;28.04;40.45;99923.52;1789033;79;20990;-66
2021/08/15 08:18:44;;;;;;;7.30;4.83;;;;;;;28.07;40.38;99937.70;1788035;79;21689;-65
2021/08/15 08:21:10;;;;;;;6.12;4.97;;;;;;;28.08;40.94;99927.06;1785302;78;21052;-67
2021/08/15 08:23:37;;;;;;;7.53;4.95;;;;;;;28.10;41.10;99928.41;1790161;79;21021;-66
2021/08/15 08:26:03;;;;;;;9.23;5.40;;;;;;;28.11;40.95;99933.34;1780496;79;22137;-67
2021/08/15 08:28:31;;;;;;;6.60;4.90;;;;;;;28.15;41.20;99927.59;1803685;79;21008;-66
2021/08/15 08:30:57;;;;;;;7.05;5.10;;;;;;;28.17;41.32;99929.49;1782366;78;21135;-65
2021/08/15 08:33:24;;;;;;;7.10;5.12;;;;;;;28.20;41.55;99934.38;1797438;78;21584;-65
2021/08/15 08:35:50;;;;;;;6.25;4.53;;;;;;;28.22;41.12;99925.35;1801220;79;21073;-65
2021/08/15 08:38:17;;;;;;;7.12;4.70;;;;;;;28.24;41.39;99919.09;1789580;78;21049;-68
2021/08/15 08:40:43;;;;;;;6.50;5.33;;;;;;;28.26;40.89;99911.42;1800284;79;21010;-69
2021/08/15 08:43:10;;;;;;;6.97;5.25;;;;;;;28.30;41.02;99911.13;1795607;79;21131;-69
2021/08/15 08:45:41;;;;;;;5.90;5.20;;;;;;;28.33;40.83;99917.37;1794208;79;21731;-70
2021/08/15 08:48:08;;;;;;;5.25;4.70;;;;;;;28.36;40.49;99916.02;1814071;77;22077;-68
2021/08/15 08:50:36;;;;;;;8.58;6.10;;;;;;;28.38;40.64;99922.82;1794904;77;21058;-66
2021/08/15 08:53:02;;;;;;;7.87;5.37;;;;;;;28.40;40.58;99911.61;1789454;79;21044;-69
2021/08/15 08:55:29;;;;;;;8.65;5.15;;;;;;;28.41;40.34;99912.70;1802669;77;21103;-69
2021/08/15 08:57:55;;;;;;;6.47;5.08;;;;;;;28.44;40.62;99909.39;1789614;77;22045;-64
2021/08/15 09:00:22;;;;;;;5.83;5.30;;;;;;;28.49;41.21;99900.89;1814944;78;21121;-68
2021/08/15 09:02:48;;;;;;;5.70;5.20;;;;;;;28.51;40.82;99900.05;1802320;77;21113;-68
2021/08/15 09:05:14;;;;;;;5.97;5.10;;;;;;;28.53;40.06;99900.61;1802416;77;21133;-67
2021/08/15 09:07:42;;;;;;;7.30;5.25;;;;;;;28.55;40.21;99897.88;1803152;78;21129;-66
2021/08/15 09:10:11;;;;;;;7.20;4.78;;;;;;;28.59;40.15;99895.41;1803168;78;21003;-66
2021/08/15 09:12:43;;;;;;;6.17;5.17;;;;;;;28.61;40.04;99895.37;1798563;78;21050;-64
2021/08/15 09:15:16;;;;;;;5.70;5.20;;;;;;;28.66;39.57;99878.67;1801558;77;26075;-65
2021/08/15 09:17:43;;;;;;;9.48;5.70;;;;;;;28.69;39.30;99876.19;1797944;77;21541;-66
2021/08/15 09:20:13;;;;;;;6.58;4.67;;;;;;;28.71;39.76;99872.61;1797549;78;21611;-66
2021/08/15 09:22:39;;;;;;;6.85;5.22;;;;;;;28.75;40.51;99872.30;1788742;78;21036;-66
2021/08/15 09:25:14;;;;;;;6.25;4.58;;;;;;;28.78;40.79;99865.44;1824873;77;21081;-67
2021/08/15 09:27:58;;;;;;;10.32;5.22;;;;;;;28.81;41.07;99867.61;1790871;77;21065;-67
2021/08/15 09:30:30;;;;;;;6.05;4.62;;;;;;;28.85;41.25;99873.33;1794345;77;21038;-67
2021/08/15 09:33:05;;;;;;;5.92;4.75;;;;;;;28.87;41.08;99859.62;1808643;77;21195;-68
2021/08/15 09:35:39;;;;;;;6.47;5.10;;;;;;;28.89;41.14;99866.18;1811185;77;21065;-68
2021/08/15 09:38:08;;;;;;;5.70;5.00;;;;;;;28.91;41.25;99859.31;1808920;78;21182;-67
2021/08/15 09:40:39;;;;;;;26.77;10.48;;;;;;;28.94;41.41;99852.48;1817873;78;21018;-70
2021/08/15 09:43:13;;;;;;;14.98;8.28;;;;;;;28.70;87.47;99855.13;1801936;77;21057;-67
2021/08/15 09:45:44;;;;;;;6.12;5.53;;;;;;;28.48;68.93;99864.56;1790905;79;21129;-66
2021/08/15 09:48:28;;;;;;;9.50;5.97;;;;;;;28.27;51.34;99857.05;1789872;79;21007;-66
2021/08/15 09:51:17;;;;;;;8.15;4.97;;;;;;;28.23;47.33;99846.42;1762122;80;21094;-66
2021/08/15 09:54:00;;;;;;;5.70;5.00;;;;;;;28.29;45.32;99845.84;1781023;78;21073;-65
2021/08/15 09:56:40;;;;;;;7.25;4.80;;;;;;;28.38;42.49;99852.34;1775098;78;21037;-68
2021/08/15 09:59:15;;;;;;;6.67;5.10;;;;;;;28.51;41.68;99846.77;1784038;78;21137;-66
2021/08/15 10:01:45;;;;;;;8.35;5.17;;;;;;;28.61;40.98;99840.72;1767920;80;21053;-67
2021/08/15 10:04:12;;;;;;;9.05;5.97;;;;;;;28.73;41.32;99832.70;1780038;79;21093;-67
2021/08/15 10:06:40;;;;;;;6.33;5.17;;;;;;;28.82;41.86;99840.00;1776257;78;21068;-67
2021/08/15 10:09:07;;;;;;;6.47;5.30;;;;;;;28.92;41.04;99835.55;1795528;78;21038;-65
2021/08/15 10:11:34;;;;;;;6.72;5.47;;;;;;;29.00;41.23;99826.70;1780033;78;21103;-67
2021/08/15 10:14:03;;;;;;;6.42;5.65;;;;;;;29.07;41.92;99820.35;1774445;78;21005;-66
2021/08/15 10:16:55;;;;;;;7.87;6.03;;;;;;;29.12;42.10;99818.95;1791534;78;20980;-67
2021/08/15 10:19:44;;;;;;;8.75;5.25;;;;;;;29.19;42.51;99813.14;1781708;78;21576;-69
2021/08/15 10:22:13;;;;;;;8.00;5.60;;;;;;;29.23;42.17;99807.91;1788372;78;21481;-71
2021/08/15 10:24:50;;;;;;;8.50;5.25;;;;;;;29.29;41.01;99809.48;1792581;78;22078;-71
2021/08/15 10:27:43;;;;;;;9.43;5.58;;;;;;;29.35;41.16;99802.84;1791564;78;21029;-68
2021/08/15 10:30:33;;;;;;;5.20;4.67;;;;;;;29.41;41.38;99796.19;1780164;78;21032;-71
2021/08/15 10:33:11;;;;;;;8.00;5.00;;;;;;;29.48;41.03;99799.40;1786297;78;21790;-69
2021/08/15 10:35:39;;;;;;;5.95;5.15;;;;;;;29.52;39.49;99804.55;1789902;78;21007;-71
2021/08/15 10:38:10;;;;;;;7.42;5.50;;;;;;;29.59;39.99;99791.33;1782957;78;21142;-70
2021/08/15 10:40:47;;;;;;;6.78;5.50;;;;;;;29.67;40.47;99804.08;1778968;78;21044;-70
2021/08/15 10:43:16;;;;;;;5.75;5.05;;;;;;;29.73;39.91;99792.00;1788745;78;21006;-70
2021/08/15 10:45:43;;;;;;;8.00;5.30;;;;;;;29.78;40.65;99786.44;1784112;78;21017;-70
2021/08/15 10:48:15;;;;;;;12.28;5.75;;;;;;;29.83;40.82;99778.16;1779109;78;21088;-69
2021/08/15 10:50:55;;;;;;;5.90;5.30;;;;;;;29.88;40.89;99782.21;1819793;78;21124;-71
2021/08/15 10:53:36;;;;;;;5.95;5.40;;;;;;;29.92;40.64;99787.35;1819782;76;21024;-70
2021/08/15 10:56:06;;;;;;;8.25;5.28;;;;;;;29.94;39.96;99782.39;1812037;78;21127;-70
2021/08/15 10:58:47;;;;;;;6.53;5.40;;;;;;;30.00;39.76;99784.50;1806409;76;21029;-70
2021/08/15 11:01:18;;;;;;;8.20;6.25;;;;;;;30.05;39.44;99783.59;1812375;78;21131;-70
2021/08/15 11:03:54;;;;;;;7.47;5.30;;;;;;;30.09;39.76;99775.05;1812034;78;21170;-70
2021/08/15 11:06:41;;;;;;;6.30;5.58;;;;;;;30.13;39.76;99776.07;1782423;78;21076;-70
2021/08/15 11:09:07;;;;;;;7.85;5.25;;;;;;;30.16;39.64;99774.12;1806759;78;21049;-71
2021/08/15 11:11:36;;;;;;;9.45;6.03;;;;;;;30.19;39.61;99767.49;1802177;77;21762;-71
2021/08/15 11:14:25;;;;;;;5.47;4.92;;;;;;;30.23;39.60;99772.36;1798291;76;22017;-71
2021/08/15 11:17:12;;;;;;;7.50;5.10;;;;;;;30.25;39.60;99775.08;1814967;78;21133;-71
2021/08/15 11:19:38;;;;;;;5.65;5.05;;;;;;;30.29;39.39;99775.27;1787206;76;21037;-71
2021/08/15 11:22:25;;;;;;;6.90;5.25;;;;;;;30.31;39.06;99767.59;1809817;78;21120;-71
2021/08/15 11:25:03;;;;;;;6.65;5.35;;;;;;;30.36;39.05;99766.95;1812835;77;21045;-72
2021/08/15 11:27:36;;;;;;;10.13;5.72;;;;;;;30.41;39.21;99762.52;1817534;76;21370;-71
2021/08/15 11:30:13;;;;;;;7.60;5.25;;;;;;;30.43;39.23;99758.92;1821505;76;21733;-71
2021/08/15 11:32:41;;;;;;;7.33;5.90;;;;;;;30.44;39.22;99754.48;1820456;77;21079;-71
2021/08/15 11:35:10;;;;;;;6.70;5.53;;;;;;;30.47;39.33;99746.25;1786710;78;21084;-71
2021/08/15 11:37:43;;;;;;;6.62;4.92;;;;;;;30.50;39.38;99744.26;1829137;78;21565;-71
2021/08/15 11:40:21;;;;;;;6.17;5.35;;;;;;;30.51;39.36;99741.22;1819377;76;21088;-71
2021/08/15 11:43:17;;;;;;;6.03;5.22;;;;;;;30.55;38.71;99746.35;1799683;76;21143;-72